MET'MAP v2.0
soon released !

Expected late october,
this new version will be
more efficient, smarter,
and hosted on a brand new
server x3 powerfull...
...and still free !


Not compatible ?
Try the mobile version !

LOG IN : | Subscribe | Disclaimer | Who is Orbifly ? |
ICAO code :

TAF - LIPH Treviso Airport - 31 May 2020 06:26 UTC
Data Sources :     NOAA   


- Airport Elevation : 59 ft
- IATA code : TSF
- No reported NOTAMs.


LIPH - Treviso Airport

Latest METAR recorded : 2015/08/11 07:45 LIPH 110745Z 02002KT CAVOK 27/17 Q1012
TAF TAF LIPH
Valid from the 30 at 18:00 until the 31 at 18:00 UTC


301700Z 3018/3118 03010KT 9999 SCT040
TEMPO 3020/3102 4000 SHRA
BECMG 3108/3110 VRB05KT

Source NOAA


MET'MAP, your aeronautical weather chart ! - Copyright ORBIFLY December 2007

Programming & Development : Alexandra Zaïnal
Co-Developer : Marc-Olivier Méhu
Technical & hardware support : Manuel Goepfert
Concept & Financing : Baudouin d'Aumeries